Time;durP1;ratioP1;P1;durP2;ratioP2;P2;SDS_P1;SDS_P2;PMS_P1;PMS_P2;Temp;Humidity;BMP_temperature;BMP_pressure;BME280_temperature;BME280_humidity;BME280_pressure;Samples;Min_cycle;Max_cycle;Signal;HPM_P1;HPM_P2
2021/09/16 00:02:43;;;;;;;31.88;21.58;;;;;;;;;;6198663;23;20214;-92
2021/09/16 00:05:49;;;;;;;38.63;21.35;;;;;;;;;;6200261;23;20273;-93
2021/09/16 00:08:54;;;;;;;35.22;20.80;;;;;;;;;;6199293;22;20179;-93
2021/09/16 00:11:59;;;;;;;30.58;19.80;;;;;;;;;;6198741;22;20164;-93
2021/09/16 00:15:05;;;;;;;36.05;20.67;;;;;;;;;;6198968;22;20165;-92
2021/09/16 00:18:10;;;;;;;39.78;21.13;;;;;;;;;;6197455;23;20598;-92
2021/09/16 00:21:17;;;;;;;29.38;20.45;;;;;;;;;;6199445;23;20208;-93
2021/09/16 00:24:22;;;;;;;33.42;19.67;;;;;;;;;;6199511;22;20239;-93
2021/09/16 00:27:27;;;;;;;34.55;20.25;;;;;;;;;;6199660;22;20597;-92
2021/09/16 00:30:33;;;;;;;31.42;19.75;;;;;;;;;;6200450;22;20252;-92
2021/09/16 00:33:40;;;;;;;29.02;18.65;;;;;;;;;;6200082;23;20249;-92
2021/09/16 00:36:48;;;;;;;34.53;18.38;;;;;;;;;;6199976;23;20260;-92
2021/09/16 00:39:53;;;;;;;29.23;19.38;;;;;;;;;;6201086;23;20216;-92
2021/09/16 00:42:58;;;;;;;35.45;20.25;;;;;;;;;;6199311;23;20635;-92
2021/09/16 00:46:04;;;;;;;33.10;20.20;;;;;;;;;;6199253;22;20228;-93
2021/09/16 00:49:10;;;;;;;31.55;20.42;;;;;;;;;;6198247;23;20720;-93
2021/09/16 00:52:16;;;;;;;29.35;19.85;;;;;;;;;;6199379;22;20234;-92
2021/09/16 00:55:22;;;;;;;38.58;21.17;;;;;;;;;;6200513;23;20166;-92
2021/09/16 00:58:35;;;;;;;35.80;21.20;;;;;;;;;;6200251;22;20155;-92
2021/09/16 01:01:40;;;;;;;34.45;20.83;;;;;;;;;;6199499;23;20247;-92
2021/09/16 01:04:45;;;;;;;33.67;21.90;;;;;;;;;;6197327;22;20163;-92
2021/09/16 01:07:52;;;;;;;37.45;21.92;;;;;;;;;;6199263;23;20180;-91
2021/09/16 01:10:58;;;;;;;39.13;22.00;;;;;;;;;;6200468;22;20267;-91
2021/09/16 01:14:04;;;;;;;36.08;20.95;;;;;;;;;;6202431;23;20252;-91
2021/09/16 01:17:10;;;;;;;36.85;22.55;;;;;;;;;;6201963;22;20159;-90
2021/09/16 01:20:16;;;;;;;36.35;22.70;;;;;;;;;;6202523;22;20163;-91
2021/09/16 01:23:23;;;;;;;32.78;21.02;;;;;;;;;;6201615;22;20175;-92
2021/09/16 01:26:28;;;;;;;37.33;21.20;;;;;;;;;;6202695;22;20207;-91
2021/09/16 01:29:33;;;;;;;35.38;22.50;;;;;;;;;;6202005;22;20204;-92
2021/09/16 01:32:39;;;;;;;35.67;21.80;;;;;;;;;;6203819;22;20175;-93
2021/09/16 01:35:44;;;;;;;35.25;22.23;;;;;;;;;;6200716;22;20243;-92
2021/09/16 01:38:51;;;;;;;40.72;22.55;;;;;;;;;;6200195;22;20242;-91
2021/09/16 01:41:56;;;;;;;34.60;22.10;;;;;;;;;;6201830;23;20172;-92
2021/09/16 01:45:04;;;;;;;35.42;21.70;;;;;;;;;;6201552;22;20195;-91
2021/09/16 01:48:10;;;;;;;38.13;22.73;;;;;;;;;;6201730;23;20159;-92
2021/09/16 01:51:15;;;;;;;37.25;21.00;;;;;;;;;;6199881;22;20172;-91
2021/09/16 01:54:22;;;;;;;34.60;21.77;;;;;;;;;;6200735;23;20391;-92
2021/09/16 01:57:28;;;;;;;35.50;22.40;;;;;;;;;;6201198;23;20199;-93
2021/09/16 02:00:33;;;;;;;36.05;21.40;;;;;;;;;;6201610;22;20207;-94
2021/09/16 02:03:38;;;;;;;43.25;22.23;;;;;;;;;;6199934;22;20360;-93
2021/09/16 02:06:45;;;;;;;32.28;21.52;;;;;;;;;;6200045;23;20167;-92
2021/09/16 02:09:51;;;;;;;35.35;21.10;;;;;;;;;;6200415;23;20158;-92
2021/09/16 02:12:57;;;;;;;39.13;22.90;;;;;;;;;;6201635;22;20250;-92
2021/09/16 02:16:02;;;;;;;34.15;21.60;;;;;;;;;;6200352;23;20171;-93
2021/09/16 02:19:08;;;;;;;33.38;20.13;;;;;;;;;;6200172;23;20167;-92
2021/09/16 02:22:13;;;;;;;33.47;20.00;;;;;;;;;;6199916;22;20156;-93
2021/09/16 02:25:20;;;;;;;38.72;20.40;;;;;;;;;;6200783;23;20615;-92
2021/09/16 02:28:24;;;;;;;35.42;20.73;;;;;;;;;;6200147;22;20172;-91
2021/09/16 02:31:29;;;;;;;35.83;21.55;;;;;;;;;;6199845;23;20151;-93
2021/09/16 02:34:34;;;;;;;29.38;20.42;;;;;;;;;;6199696;22;20202;-92
2021/09/16 02:37:40;;;;;;;34.78;21.75;;;;;;;;;;6200388;22;20200;-93
2021/09/16 02:40:46;;;;;;;35.88;23.70;;;;;;;;;;6200654;22;20171;-92
2021/09/16 02:43:52;;;;;;;37.63;22.63;;;;;;;;;;6200122;23;20180;-93
2021/09/16 02:46:57;;;;;;;31.33;18.85;;;;;;;;;;6199556;23;20168;-92
2021/09/16 02:50:02;;;;;;;31.05;18.90;;;;;;;;;;6199495;23;20176;-94
2021/09/16 02:53:07;;;;;;;29.83;19.33;;;;;;;;;;6200390;23;20159;-91
2021/09/16 02:56:15;;;;;;;30.40;20.45;;;;;;;;;;6199759;22;20304;-93
2021/09/16 02:59:21;;;;;;;31.90;19.92;;;;;;;;;;6198673;23;20200;-91
2021/09/16 03:02:27;;;;;;;33.85;20.33;;;;;;;;;;6198222;23;20204;-89
2021/09/16 03:05:34;;;;;;;36.45;21.33;;;;;;;;;;6199594;22;20199;-93
2021/09/16 03:08:39;;;;;;;31.55;19.33;;;;;;;;;;6199588;23;20231;-91
2021/09/16 03:11:46;;;;;;;34.78;21.23;;;;;;;;;;6200585;22;20168;-92
2021/09/16 03:14:51;;;;;;;34.22;21.55;;;;;;;;;;6200501;22;20572;-92
2021/09/16 03:17:56;;;;;;;34.25;22.58;;;;;;;;;;6200314;23;20180;-91
2021/09/16 03:21:01;;;;;;;31.75;21.63;;;;;;;;;;6201313;22;20163;-92
2021/09/16 03:24:07;;;;;;;38.95;23.05;;;;;;;;;;6199156;22;20168;-91
2021/09/16 03:27:14;;;;;;;33.88;21.67;;;;;;;;;;6200687;22;20152;-92
2021/09/16 03:30:20;;;;;;;39.92;22.40;;;;;;;;;;6201191;22;20171;-93
2021/09/16 03:33:25;;;;;;;38.47;22.42;;;;;;;;;;6203514;23;20171;-92
2021/09/16 03:36:30;;;;;;;33.97;21.02;;;;;;;;;;6202102;23;20179;-93
2021/09/16 03:39:35;;;;;;;32.15;21.25;;;;;;;;;;6201840;22;20613;-92
2021/09/16 03:42:42;;;;;;;37.17;22.75;;;;;;;;;;6202843;23;20199;-93
2021/09/16 03:45:46;;;;;;;37.70;24.10;;;;;;;;;;6201757;22;20168;-92
2021/09/16 03:48:52;;;;;;;33.58;21.85;;;;;;;;;;6201827;23;20191;-93
2021/09/16 03:51:57;;;;;;;36.30;20.95;;;;;;;;;;6201569;22;20179;-92
2021/09/16 03:55:02;;;;;;;37.28;21.17;;;;;;;;;;6202776;22;20304;-92
2021/09/16 03:58:09;;;;;;;34.42;20.90;;;;;;;;;;6201472;22;20287;-91
2021/09/16 04:05:35;;;;;;;35.05;20.55;;;;;;;;;;6203397;23;20187;-91
2021/09/16 04:13:00;;;;;;;38.95;22.52;;;;;;;;;;6202095;23;20157;-93
2021/09/16 04:16:07;;;;;;;43.60;24.23;;;;;;;;;;6204396;23;20184;-92
2021/09/16 04:19:14;;;;;;;40.90;23.33;;;;;;;;;;6208356;22;20168;-92
2021/09/16 04:22:21;;;;;;;46.00;26.90;;;;;;;;;;6209401;23;20160;-91
2021/09/16 04:25:26;;;;;;;50.03;28.98;;;;;;;;;;6202936;23;20221;-92
2021/09/16 04:28:32;;;;;;;48.53;27.85;;;;;;;;;;6206621;22;20191;-93
2021/09/16 04:31:39;;;;;;;41.95;25.20;;;;;;;;;;6201903;22;20164;-91
2021/09/16 04:34:44;;;;;;;36.80;22.08;;;;;;;;;;6203347;22;20200;-92
2021/09/16 04:37:49;;;;;;;36.78;22.70;;;;;;;;;;6203116;22;20174;-90
2021/09/16 04:40:59;;;;;;;41.25;23.45;;;;;;;;;;6201960;22;20220;-91
2021/09/16 04:44:04;;;;;;;43.88;24.85;;;;;;;;;;6203673;22;20278;-91
2021/09/16 04:47:11;;;;;;;42.97;25.33;;;;;;;;;;6202322;22;20179;-91
2021/09/16 04:50:16;;;;;;;46.65;25.13;;;;;;;;;;6202670;22;20159;-92
2021/09/16 04:53:22;;;;;;;43.75;24.45;;;;;;;;;;6200936;22;20168;-93
2021/09/16 04:56:27;;;;;;;43.85;24.65;;;;;;;;;;6202864;23;20176;-93
2021/09/16 04:59:32;;;;;;;38.10;22.40;;;;;;;;;;6200342;22;20243;-92
2021/09/16 05:02:40;;;;;;;36.20;23.15;;;;;;;;;;6204640;23;20156;-92
2021/09/16 05:05:45;;;;;;;39.67;23.42;;;;;;;;;;6205108;23;20191;-92
2021/09/16 05:08:50;;;;;;;40.55;24.00;;;;;;;;;;6198594;22;20215;-92
2021/09/16 05:11:59;;;;;;;47.17;25.08;;;;;;;;;;6201286;22;20180;-92
2021/09/16 05:15:05;;;;;;;42.40;24.60;;;;;;;;;;6202144;23;20253;-92
2021/09/16 05:18:15;;;;;;;37.47;22.55;;;;;;;;;;6202776;23;20163;-92
2021/09/16 05:21:20;;;;;;;39.00;23.73;;;;;;;;;;6204230;22;20218;-92
2021/09/16 05:24:26;;;;;;;45.33;22.73;;;;;;;;;;6204042;23;20191;-91
2021/09/16 05:27:32;;;;;;;39.63;23.17;;;;;;;;;;6202252;22;20167;-92
2021/09/16 05:48:11;;;;;;;35.80;22.98;;;;;;;;;;6132766;23;20212;-91
2021/09/16 05:51:16;;;;;;;38.33;23.65;;;;;;;;;;6201908;22;20167;-92
2021/09/16 05:54:21;;;;;;;43.47;23.05;;;;;;;;;;6202831;23;20167;-92
2021/09/16 05:57:27;;;;;;;38.22;22.98;;;;;;;;;;6202122;23;20215;-91
2021/09/16 06:00:37;;;;;;;34.35;21.80;;;;;;;;;;6202402;22;20151;-92
2021/09/16 06:03:57;;;;;;;35.00;21.38;;;;;;;;;;6202859;22;20620;-92
2021/09/16 06:07:04;;;;;;;34.80;21.52;;;;;;;;;;6201032;22;20180;-92
2021/09/16 06:10:11;;;;;;;36.00;21.67;;;;;;;;;;6200578;23;20168;-91
2021/09/16 06:13:17;;;;;;;35.25;22.27;;;;;;;;;;6204026;22;20191;-92
2021/09/16 06:16:24;;;;;;;38.00;21.40;;;;;;;;;;6206980;22;20216;-93
2021/09/16 06:19:31;;;;;;;37.30;21.40;;;;;;;;;;6205787;22;20167;-91
2021/09/16 06:22:38;;;;;;;34.00;20.73;;;;;;;;;;6203568;22;20256;-91
2021/09/16 06:25:51;;;;;;;32.50;18.65;;;;;;;;;;6202168;23;20472;-90
2021/09/16 06:28:56;;;;;;;30.40;17.33;;;;;;;;;;6204411;22;20158;-92
2021/09/16 06:32:03;;;;;;;29.85;18.05;;;;;;;;;;6208067;22;20171;-93
2021/09/16 10:44:34;;;;;;;8.23;3.47;;;;;;;;;;6120987;23;20157;-94
2021/09/16 10:51:05;;;;;;;6.50;3.88;;;;;;;;;;6116692;23;20169;-93
2021/09/16 10:54:29;;;;;;;6.22;3.55;;;;;;;;;;6116677;23;20186;-92
2021/09/16 10:57:38;;;;;;;6.38;4.55;;;;;;;;;;6118699;23;20249;-92
2021/09/16 22:07:20;;;;;;;18.50;10.30;;;;;;;;;;6178355;23;20147;-90
2021/09/16 22:10:26;;;;;;;21.80;10.90;;;;;;;;;;6161056;23;20188;-93
2021/09/16 22:13:32;;;;;;;17.63;10.18;;;;;;;;;;6161528;23;20168;-91
2021/09/16 22:16:39;;;;;;;18.00;10.27;;;;;;;;;;6161409;23;20188;-94
2021/09/16 22:19:44;;;;;;;18.23;10.38;;;;;;;;;;6179076;23;20197;-92
2021/09/16 22:22:53;;;;;;;21.55;10.40;;;;;;;;;;6178245;23;20193;-92
2021/09/16 22:26:01;;;;;;;18.45;10.70;;;;;;;;;;6160456;23;20168;-92
2021/09/16 22:29:08;;;;;;;21.48;10.40;;;;;;;;;;6162351;23;20172;-91
2021/09/16 22:32:14;;;;;;;18.83;10.57;;;;;;;;;;6163046;23;20217;-92
2021/09/16 22:35:20;;;;;;;21.38;11.15;;;;;;;;;;6174515;23;20265;-91
2021/09/16 22:38:28;;;;;;;20.38;11.10;;;;;;;;;;6156801;23;20156;-91
2021/09/16 22:41:33;;;;;;;19.05;10.63;;;;;;;;;;6157403;23;20219;-91
2021/09/16 22:44:39;;;;;;;28.05;10.90;;;;;;;;;;6156147;23;20192;-93
2021/09/16 22:47:44;;;;;;;22.17;12.05;;;;;;;;;;6156757;23;20259;-91
2021/09/16 22:50:50;;;;;;;19.60;11.10;;;;;;;;;;6156627;23;20168;-91
2021/09/16 22:53:57;;;;;;;20.33;11.40;;;;;;;;;;6172682;23;20192;-94
2021/09/16 22:57:04;;;;;;;21.77;12.40;;;;;;;;;;6174986;23;20247;-92
2021/09/16 23:00:13;;;;;;;17.40;10.40;;;;;;;;;;6205583;22;20184;-93
2021/09/16 23:03:20;;;;;;;20.05;11.30;;;;;;;;;;6206541;22;20171;-93
2021/09/16 23:06:25;;;;;;;24.83;11.50;;;;;;;;;;6204727;22;20228;-91
2021/09/16 23:09:34;;;;;;;22.45;11.48;;;;;;;;;;6206362;22;20179;-93
2021/09/16 23:12:43;;;;;;;20.23;11.23;;;;;;;;;;6206138;23;20172;-92
2021/09/16 23:15:50;;;;;;;18.85;10.77;;;;;;;;;;6205908;22;20247;-92
2021/09/16 23:18:55;;;;;;;16.92;10.27;;;;;;;;;;6206263;22;20176;-94
2021/09/16 23:22:01;;;;;;;16.77;11.27;;;;;;;;;;6204921;23;20242;-93
2021/09/16 23:25:10;;;;;;;16.30;10.43;;;;;;;;;;6205023;23;20156;-93
2021/09/16 23:28:16;;;;;;;19.50;11.40;;;;;;;;;;6205355;23;20241;-92
2021/09/16 23:31:21;;;;;;;19.08;11.30;;;;;;;;;;6205165;22;20170;-92
2021/09/16 23:34:27;;;;;;;17.38;10.77;;;;;;;;;;6207627;23;20211;-91
2021/09/16 23:37:32;;;;;;;17.70;11.25;;;;;;;;;;6206214;22;20714;-91
2021/09/16 23:40:40;;;;;;;19.50;11.07;;;;;;;;;;6206266;22;20171;-93
2021/09/16 23:43:46;;;;;;;20.85;11.93;;;;;;;;;;6204810;22;20203;-92
2021/09/16 23:46:52;;;;;;;19.58;11.07;;;;;;;;;;6206098;23;20184;-91
2021/09/16 23:49:58;;;;;;;22.58;12.00;;;;;;;;;;6205632;22;20168;-91
2021/09/16 23:53:05;;;;;;;22.98;11.55;;;;;;;;;;6205069;23;20503;-93
2021/09/16 23:56:22;;;;;;;16.45;11.02;;;;;;;;;;6207656;22;20242;-93
2021/09/16 23:59:28;;;;;;;19.33;11.18;;;;;;;;;;6208007;22;20172;-91
